createdAt,value
2022-12-31T00:00:15.145Z,100.00
2022-12-31T00:02:42.450Z,100.00
2022-12-31T00:05:10.246Z,100.00
2022-12-31T00:10:05.013Z,100.00
2022-12-31T00:12:32.341Z,100.00
2022-12-31T00:14:59.567Z,100.00
2022-12-31T00:17:26.742Z,100.00
2022-12-31T00:19:54.009Z,100.00
2022-12-31T00:22:21.335Z,100.00
2022-12-31T00:24:48.828Z,100.00
2022-12-31T00:27:16.741Z,100.00
2022-12-31T00:29:43.967Z,100.00
2022-12-31T00:32:11.188Z,100.00
2022-12-31T00:34:38.597Z,100.00
2022-12-31T00:37:05.844Z,100.00
2022-12-31T00:39:33.017Z,100.00
2022-12-31T00:42:00.259Z,100.00
2022-12-31T00:44:27.455Z,100.00
2022-12-31T00:46:54.623Z,100.00
2022-12-31T00:49:21.899Z,100.00
2022-12-31T00:51:49.369Z,100.00
2022-12-31T00:54:16.603Z,100.00
2022-12-31T00:56:43.791Z,100.00
2022-12-31T00:59:10.966Z,100.00
2022-12-31T01:01:39.890Z,100.00
2022-12-31T01:04:16.612Z,100.00
2022-12-31T01:06:44.390Z,100.00
2022-12-31T01:09:12.841Z,100.00
2022-12-31T01:11:40.071Z,100.00
2022-12-31T01:14:08.823Z,100.00
2022-12-31T01:16:42.383Z,100.00
2022-12-31T01:19:12.564Z,100.00
2022-12-31T01:21:40.819Z,100.00
2022-12-31T01:24:08.953Z,100.00
2022-12-31T01:26:36.389Z,100.00
2022-12-31T01:29:04.381Z,100.00
2022-12-31T01:31:33.019Z,100.00
2022-12-31T01:34:00.660Z,100.00
2022-12-31T01:36:29.556Z,100.00
2022-12-31T01:38:58.182Z,100.00
2022-12-31T01:41:28.127Z,100.00
2022-12-31T01:43:58.514Z,100.00
2022-12-31T01:46:44.576Z,100.00
2022-12-31T01:49:21.808Z,100.00
2022-12-31T01:51:52.623Z,100.00
2022-12-31T01:54:22.180Z,100.00
2022-12-31T01:56:50.156Z,100.00
2022-12-31T01:59:18.645Z,100.00
2022-12-31T02:01:48.225Z,100.00
2022-12-31T02:04:16.217Z,100.00
2022-12-31T02:06:58.978Z,100.00
2022-12-31T02:09:26.456Z,100.00
2022-12-31T02:11:53.643Z,100.00
2022-12-31T02:14:31.691Z,100.00
2022-12-31T02:17:17.109Z,100.00
2022-12-31T02:20:10.899Z,100.00
2022-12-31T02:23:19.465Z,100.00
2022-12-31T02:26:03.449Z,100.00
2022-12-31T02:29:04.435Z,100.00
2022-12-31T02:31:47.398Z,100.00
2022-12-31T02:34:20.869Z,100.00
2022-12-31T02:36:49.192Z,100.00
2022-12-31T02:39:16.594Z,100.00
2022-12-31T02:41:54.818Z,100.00
2022-12-31T02:44:28.274Z,100.00
2022-12-31T02:47:19.123Z,100.00
2022-12-31T02:49:59.885Z,100.00
2022-12-31T02:52:53.379Z,100.00
2022-12-31T02:55:38.036Z,100.00
2022-12-31T02:58:22.857Z,100.00
2022-12-31T03:01:12.275Z,100.00
2022-12-31T03:03:40.311Z,100.00
2022-12-31T03:06:08.943Z,100.00
2022-12-31T03:08:56.139Z,100.00
2022-12-31T03:11:42.294Z,100.00
2022-12-31T03:14:09.498Z,100.00
2022-12-31T03:16:36.763Z,100.00
2022-12-31T03:19:22.691Z,100.00
2022-12-31T03:22:08.339Z,100.00
2022-12-31T03:24:54.033Z,100.00
2022-12-31T03:27:21.276Z,100.00
2022-12-31T03:29:48.465Z,100.00
2022-12-31T03:32:15.629Z,100.00
2022-12-31T03:34:42.880Z,100.00
2022-12-31T03:37:10.054Z,100.00
2022-12-31T03:39:37.210Z,100.00
2022-12-31T03:42:04.616Z,100.00
2022-12-31T03:44:31.825Z,100.00
2022-12-31T03:46:59.121Z,100.00
2022-12-31T03:49:26.304Z,100.00
2022-12-31T03:51:53.467Z,100.00
2022-12-31T03:54:20.750Z,100.00
2022-12-31T03:56:49.540Z,100.00
2022-12-31T03:59:16.832Z,100.00
2022-12-31T04:01:44.128Z,100.00
2022-12-31T04:04:11.414Z,100.00
2022-12-31T04:06:38.796Z,100.00
2022-12-31T04:09:05.972Z,100.00
2022-12-31T04:11:33.205Z,100.00
2022-12-31T04:14:00.400Z,100.00
2022-12-31T04:16:27.647Z,100.00
2022-12-31T04:18:54.875Z,100.00
2022-12-31T04:21:22.037Z,100.00
2022-12-31T04:23:49.218Z,100.00
2022-12-31T04:26:16.379Z,100.00
2022-12-31T04:28:43.552Z,100.00
2022-12-31T04:31:11.243Z,100.00
2022-12-31T04:33:38.423Z,100.00
2022-12-31T04:36:07.514Z,100.00
2022-12-31T04:38:34.887Z,100.00
2022-12-31T04:41:17.410Z,100.00
2022-12-31T04:43:49.667Z,100.00
2022-12-31T04:46:18.183Z,100.00
2022-12-31T04:48:45.356Z,100.00
2022-12-31T04:51:13.191Z,100.00
2022-12-31T04:53:40.479Z,100.00
2022-12-31T04:56:08.347Z,100.00
2022-12-31T04:58:36.273Z,100.00
2022-12-31T05:01:03.604Z,100.00
2022-12-31T05:03:31.137Z,100.00
2022-12-31T05:06:11.073Z,100.00
2022-12-31T05:08:38.250Z,100.00
2022-12-31T05:11:05.438Z,100.00
2022-12-31T05:13:33.583Z,100.00
2022-12-31T05:16:01.600Z,100.00
2022-12-31T05:18:29.223Z,100.00
2022-12-31T05:20:56.433Z,100.00
2022-12-31T05:23:23.658Z,100.00
2022-12-31T05:25:51.279Z,100.00
2022-12-31T05:28:18.682Z,100.00
2022-12-31T05:30:48.987Z,100.00
2022-12-31T05:33:16.508Z,100.00
2022-12-31T05:35:43.698Z,100.00
2022-12-31T05:38:10.878Z,100.00
2022-12-31T05:40:38.029Z,100.00
2022-12-31T05:43:05.435Z,100.00
2022-12-31T05:45:32.579Z,100.00
2022-12-31T05:47:59.802Z,100.00
2022-12-31T05:50:27.019Z,100.00
2022-12-31T05:52:54.192Z,100.00
2022-12-31T05:55:21.382Z,100.00
2022-12-31T05:57:48.667Z,100.00
2022-12-31T06:00:16.220Z,100.00
2022-12-31T06:02:43.557Z,100.00
2022-12-31T06:05:10.760Z,100.00
2022-12-31T06:07:37.914Z,100.00
2022-12-31T06:10:05.836Z,100.00
2022-12-31T06:12:33.103Z,100.00
2022-12-31T06:15:00.497Z,100.00
2022-12-31T06:17:28.029Z,100.00
2022-12-31T06:19:55.239Z,100.00
2022-12-31T06:22:22.426Z,100.00
2022-12-31T06:24:49.602Z,100.00
2022-12-31T06:27:16.749Z,100.00
2022-12-31T06:29:45.645Z,100.00
2022-12-31T06:32:12.815Z,100.00
2022-12-31T06:34:40.005Z,100.00
2022-12-31T06:37:07.201Z,100.00
2022-12-31T06:39:34.372Z,100.00
2022-12-31T06:42:01.570Z,100.00
2022-12-31T06:44:28.758Z,100.00
2022-12-31T06:46:55.976Z,100.00
2022-12-31T06:49:23.198Z,100.00
2022-12-31T06:51:50.349Z,100.00
2022-12-31T06:54:17.722Z,100.00
2022-12-31T06:56:45.092Z,100.00
2022-12-31T06:59:26.218Z,100.00
2022-12-31T07:02:21.660Z,100.00
2022-12-31T07:05:28.629Z,100.00
2022-12-31T07:08:31.293Z,100.00
2022-12-31T07:11:09.567Z,100.00
2022-12-31T07:14:03.687Z,100.00
2022-12-31T07:16:47.204Z,100.00
2022-12-31T07:19:23.266Z,100.00
2022-12-31T07:21:52.008Z,100.00
2022-12-31T07:24:19.429Z,100.00
2022-12-31T07:27:08.448Z,100.00
2022-12-31T07:29:53.639Z,100.00
2022-12-31T07:32:57.571Z,100.00
2022-12-31T07:35:45.095Z,100.00
2022-12-31T07:38:44.496Z,100.00
2022-12-31T07:41:16.967Z,100.00
2022-12-31T07:44:08.323Z,100.00
2022-12-31T07:46:55.792Z,100.00
2022-12-31T07:49:24.679Z,100.00
2022-12-31T07:51:52.381Z,100.00
2022-12-31T07:54:19.865Z,100.00
2022-12-31T07:56:47.605Z,100.00
2022-12-31T07:59:58.742Z,100.00
2022-12-31T08:02:56.795Z,100.00
2022-12-31T08:05:31.887Z,100.00
2022-12-31T08:08:09.366Z,100.00
2022-12-31T08:11:01.714Z,100.00
2022-12-31T08:13:29.192Z,100.00
2022-12-31T08:15:56.545Z,100.00
2022-12-31T08:18:23.869Z,100.00
2022-12-31T08:21:02.740Z,100.00
2022-12-31T08:23:41.444Z,100.00
2022-12-31T08:26:30.382Z,100.00
2022-12-31T08:29:04.845Z,100.00
2022-12-31T08:31:53.824Z,100.00
2022-12-31T08:34:46.419Z,100.00
2022-12-31T08:37:19.220Z,100.00
2022-12-31T08:40:10.458Z,98.96
2022-12-31T08:43:13.947Z,99.26
2022-12-31T08:45:49.982Z,98.69
2022-12-31T08:48:37.879Z,98.47
2022-12-31T08:51:05.674Z,97.40
2022-12-31T08:53:33.089Z,97.19
2022-12-31T08:56:13.022Z,96.68
2022-12-31T08:58:44.927Z,96.43
2022-12-31T09:01:13.483Z,96.07
2022-12-31T09:04:06.065Z,96.43
2022-12-31T09:06:41.935Z,95.46
2022-12-31T09:09:38.236Z,95.62
2022-12-31T09:12:17.006Z,95.92
2022-12-31T09:14:57.330Z,96.43
2022-12-31T09:17:48.900Z,96.32
2022-12-31T09:20:41.894Z,95.73
2022-12-31T09:23:12.360Z,94.84
2022-12-31T09:26:06.256Z,94.33
2022-12-31T09:28:54.427Z,92.45
2022-12-31T09:31:44.111Z,94.07
2022-12-31T09:34:28.130Z,93.07
2022-12-31T09:37:17.863Z,92.01
2022-12-31T09:39:47.216Z,91.83
2022-12-31T09:42:52.174Z,91.11
2022-12-31T09:45:34.007Z,91.93
2022-12-31T09:48:16.933Z,90.94
2022-12-31T09:51:10.637Z,90.87
2022-12-31T09:53:53.330Z,90.27
2022-12-31T09:56:32.905Z,89.54
2022-12-31T09:59:42.352Z,89.35
2022-12-31T10:02:41.469Z,90.04
2022-12-31T10:05:33.360Z,89.68
2022-12-31T10:08:15.571Z,90.00
2022-12-31T10:10:52.778Z,88.97
2022-12-31T10:13:50.889Z,87.30
2022-12-31T10:17:00.421Z,88.70
2022-12-31T10:20:13.277Z,87.16
2022-12-31T10:23:03.958Z,86.74
2022-12-31T10:25:55.716Z,85.80
2022-12-31T10:28:56.089Z,84.94
2022-12-31T10:31:40.543Z,84.31
2022-12-31T10:34:34.688Z,85.10
2022-12-31T10:37:17.349Z,86.58
2022-12-31T10:40:00.529Z,86.42
2022-12-31T10:42:36.287Z,86.27
2022-12-31T10:45:29.721Z,85.38
2022-12-31T10:48:29.684Z,86.21
2022-12-31T10:51:21.404Z,86.55
2022-12-31T10:54:09.824Z,86.37
2022-12-31T10:56:46.169Z,87.71
2022-12-31T10:59:34.632Z,86.16
2022-12-31T11:02:21.875Z,85.81
2022-12-31T11:05:03.979Z,87.55
2022-12-31T11:07:43.392Z,88.45
2022-12-31T11:10:59.167Z,87.91
2022-12-31T11:13:36.009Z,86.90
2022-12-31T11:16:24.211Z,87.07
2022-12-31T11:19:16.785Z,86.79
2022-12-31T11:22:13.459Z,86.75
2022-12-31T11:25:03.910Z,86.58
2022-12-31T11:27:53.256Z,85.69
2022-12-31T11:30:33.631Z,86.04
2022-12-31T11:33:20.278Z,86.09
2022-12-31T11:36:15.709Z,83.93
2022-12-31T11:38:52.128Z,83.88
2022-12-31T11:41:54.641Z,84.44
2022-12-31T11:44:40.612Z,83.76
2022-12-31T11:47:49.676Z,83.84
2022-12-31T11:50:28.106Z,84.70
2022-12-31T11:53:11.520Z,84.29
2022-12-31T11:55:53.272Z,82.63
2022-12-31T11:58:22.044Z,82.50
2022-12-31T12:01:04.684Z,82.12
2022-12-31T12:03:32.540Z,82.07
2022-12-31T12:06:00.123Z,83.28
2022-12-31T12:08:31.135Z,82.27
2022-12-31T12:11:05.853Z,82.31
2022-12-31T12:13:33.745Z,82.43
2022-12-31T12:16:05.627Z,83.92
2022-12-31T12:18:45.879Z,82.67
2022-12-31T12:21:19.446Z,82.33
2022-12-31T12:23:58.834Z,82.23
2022-12-31T12:26:28.562Z,83.04
2022-12-31T12:28:55.779Z,82.18
2022-12-31T12:31:26.846Z,82.01
2022-12-31T12:33:54.088Z,83.30
2022-12-31T12:36:21.986Z,83.19
2022-12-31T12:39:04.413Z,83.05
2022-12-31T12:41:31.823Z,84.54
2022-12-31T12:44:17.374Z,83.82
2022-12-31T12:46:48.618Z,84.46
2022-12-31T12:49:28.370Z,83.77
2022-12-31T12:52:13.400Z,83.40
2022-12-31T12:54:59.840Z,83.28
2022-12-31T12:57:59.868Z,83.19
2022-12-31T13:01:29.558Z,83.45
2022-12-31T13:04:35.196Z,81.88
2022-12-31T13:07:07.776Z,81.84
2022-12-31T13:10:02.257Z,82.85
2022-12-31T13:13:22.891Z,83.13
2022-12-31T13:15:42.596Z,83.62
2022-12-31T13:18:27.643Z,84.06
2022-12-31T13:20:56.604Z,83.03
2022-12-31T13:23:46.228Z,83.09
2022-12-31T13:26:31.764Z,82.03
2022-12-31T13:28:59.366Z,81.96
2022-12-31T13:31:36.421Z,82.30
2022-12-31T13:34:09.021Z,83.67
2022-12-31T13:36:39.774Z,83.26
2022-12-31T13:39:14.356Z,80.56
2022-12-31T13:41:50.786Z,82.28
2022-12-31T13:44:39.892Z,80.30
2022-12-31T13:47:09.959Z,81.04
2022-12-31T13:49:45.568Z,80.19
2022-12-31T13:52:33.754Z,80.30
2022-12-31T13:55:29.160Z,79.62
2022-12-31T13:58:38.378Z,81.66
2022-12-31T14:01:22.100Z,82.02
2022-12-31T14:04:14.011Z,81.30
2022-12-31T14:06:49.323Z,80.77
2022-12-31T14:09:37.723Z,81.84
2022-12-31T14:12:28.954Z,83.58
2022-12-31T14:14:59.005Z,83.25
2022-12-31T14:17:42.903Z,82.91
2022-12-31T14:20:29.225Z,83.25
2022-12-31T14:23:37.840Z,83.36
2022-12-31T14:26:15.966Z,84.27
2022-12-31T14:28:49.785Z,83.42
2022-12-31T14:31:37.767Z,82.34
2022-12-31T14:34:42.798Z,83.03
2022-12-31T14:37:22.288Z,83.17
2022-12-31T14:39:58.201Z,83.59
2022-12-31T14:43:01.672Z,85.44
2022-12-31T14:45:45.858Z,85.00
2022-12-31T14:48:46.846Z,86.07
2022-12-31T14:51:14.405Z,86.14
2022-12-31T14:53:53.034Z,83.53
2022-12-31T14:56:32.475Z,83.12
2022-12-31T14:59:01.383Z,82.54
2022-12-31T15:01:29.479Z,85.07
2022-12-31T15:03:58.083Z,85.49
2022-12-31T15:06:44.481Z,83.75
2022-12-31T15:09:43.315Z,84.34
2022-12-31T15:12:29.116Z,85.27
2022-12-31T15:15:18.192Z,85.91
2022-12-31T15:18:05.752Z,84.99
2022-12-31T15:20:46.040Z,86.09
2022-12-31T15:23:22.833Z,84.74
2022-12-31T15:25:57.126Z,86.22
2022-12-31T15:28:36.818Z,87.09
2022-12-31T15:31:17.721Z,84.90
2022-12-31T15:33:58.243Z,85.94
2022-12-31T15:36:35.511Z,86.04
2022-12-31T15:39:20.486Z,84.63
2022-12-31T15:42:35.675Z,85.12
2022-12-31T15:44:59.914Z,84.78
2022-12-31T15:47:41.636Z,84.20
2022-12-31T15:50:15.543Z,84.53
2022-12-31T15:52:52.499Z,84.27
2022-12-31T15:55:44.715Z,86.22
2022-12-31T15:58:17.076Z,86.13
2022-12-31T16:00:55.761Z,85.12
2022-12-31T16:03:28.175Z,85.28
2022-12-31T16:06:01.665Z,85.24
2022-12-31T16:08:38.380Z,85.61
2022-12-31T16:11:08.136Z,83.11
2022-12-31T16:13:39.487Z,84.36
2022-12-31T16:16:16.527Z,85.45
2022-12-31T16:18:44.440Z,87.15
2022-12-31T16:21:32.488Z,85.47
2022-12-31T16:24:05.530Z,84.13
2022-12-31T16:26:50.023Z,84.23
2022-12-31T16:29:19.097Z,84.42
2022-12-31T16:31:47.335Z,83.95
2022-12-31T16:34:17.259Z,85.78
2022-12-31T16:36:58.824Z,83.85
2022-12-31T16:39:32.196Z,83.62
2022-12-31T16:42:13.092Z,83.71
2022-12-31T16:44:40.945Z,82.11
2022-12-31T16:47:10.075Z,82.87
2022-12-31T16:49:38.096Z,82.30
2022-12-31T16:52:17.937Z,83.93
2022-12-31T16:54:47.208Z,82.60
2022-12-31T16:57:25.834Z,83.99
2022-12-31T16:59:56.046Z,83.61
2022-12-31T17:02:34.045Z,83.20
2022-12-31T17:05:02.134Z,82.34
2022-12-31T17:07:37.650Z,82.62
2022-12-31T17:10:07.576Z,81.69
2022-12-31T17:13:17.541Z,82.55
2022-12-31T17:15:40.021Z,80.98
2022-12-31T17:18:07.926Z,80.90
2022-12-31T17:20:35.521Z,81.84
2022-12-31T17:23:09.795Z,82.32
2022-12-31T17:25:37.988Z,81.98
2022-12-31T17:28:25.195Z,81.55
2022-12-31T17:30:52.843Z,81.76
2022-12-31T17:33:22.778Z,81.99
2022-12-31T17:36:13.686Z,82.45
2022-12-31T17:38:44.027Z,81.42
2022-12-31T17:41:26.550Z,82.82
2022-12-31T17:43:58.011Z,81.76
2022-12-31T17:46:25.838Z,81.95
2022-12-31T17:49:01.848Z,82.14
2022-12-31T17:51:29.047Z,81.45
2022-12-31T17:53:56.270Z,81.77
2022-12-31T17:56:23.479Z,81.96
2022-12-31T17:58:54.276Z,82.20
2022-12-31T18:01:23.540Z,82.72
2022-12-31T18:03:50.914Z,82.37
2022-12-31T18:06:19.484Z,82.85
2022-12-31T18:08:47.124Z,82.97
2022-12-31T18:11:20.481Z,82.46
2022-12-31T18:13:48.098Z,82.85
2022-12-31T18:16:15.439Z,82.24
2022-12-31T18:18:45.395Z,82.16
2022-12-31T18:21:25.432Z,81.67
2022-12-31T18:26:22.279Z,82.32
2022-12-31T18:28:50.165Z,83.31
2022-12-31T18:31:20.198Z,82.61
2022-12-31T18:33:48.190Z,81.87
2022-12-31T18:36:17.011Z,81.83
2022-12-31T18:38:44.443Z,81.99
2022-12-31T18:41:27.716Z,83.60
2022-12-31T18:43:55.865Z,83.78
2022-12-31T18:46:24.352Z,82.64
2022-12-31T18:48:51.825Z,83.13
2022-12-31T18:51:23.982Z,82.45
2022-12-31T18:53:53.814Z,82.87
2022-12-31T18:56:22.142Z,83.22
2022-12-31T18:58:49.479Z,82.37
2022-12-31T19:01:29.650Z,83.30
2022-12-31T19:04:02.097Z,83.12
2022-12-31T19:06:30.590Z,84.48
2022-12-31T19:09:00.883Z,84.65
2022-12-31T19:11:28.549Z,84.97
2022-12-31T19:13:55.982Z,85.13
2022-12-31T19:16:23.316Z,83.88
2022-12-31T19:18:50.903Z,86.18
2022-12-31T19:21:22.350Z,84.35
2022-12-31T19:23:52.349Z,85.32
2022-12-31T19:26:21.707Z,84.45
2022-12-31T19:28:50.983Z,85.12
2022-12-31T19:31:18.318Z,85.88
2022-12-31T19:33:45.861Z,85.27
2022-12-31T19:36:17.679Z,85.84
2022-12-31T19:38:45.588Z,85.02
2022-12-31T19:41:20.007Z,84.68
2022-12-31T19:43:47.978Z,84.75
2022-12-31T19:46:16.733Z,85.52
2022-12-31T19:48:44.468Z,83.70
2022-12-31T19:51:15.721Z,85.02
2022-12-31T19:53:43.407Z,84.56
2022-12-31T19:56:15.845Z,84.14
2022-12-31T19:58:43.436Z,84.15
2022-12-31T20:01:19.691Z,83.99
2022-12-31T20:03:47.224Z,83.97
2022-12-31T20:06:14.720Z,83.60
2022-12-31T20:08:43.371Z,83.71
2022-12-31T20:11:18.901Z,82.15
2022-12-31T20:13:47.570Z,81.90
2022-12-31T20:16:17.131Z,81.70
2022-12-31T20:18:45.942Z,82.77
2022-12-31T20:21:24.595Z,81.60
2022-12-31T20:23:53.263Z,81.92
2022-12-31T20:26:22.404Z,81.94
2022-12-31T20:28:50.743Z,80.00
2022-12-31T20:31:21.236Z,80.24
2022-12-31T20:33:49.809Z,78.64
2022-12-31T20:36:17.708Z,80.89
2022-12-31T20:38:45.593Z,77.85
2022-12-31T20:41:15.535Z,79.78
2022-12-31T20:43:43.756Z,78.96
2022-12-31T20:46:19.749Z,78.37
2022-12-31T20:48:48.235Z,79.28
2022-12-31T20:51:16.276Z,78.34
2022-12-31T20:53:55.883Z,78.75
2022-12-31T20:56:23.716Z,79.38
2022-12-31T20:58:51.317Z,78.62
2022-12-31T21:01:19.952Z,78.17
2022-12-31T21:04:05.786Z,78.65
2022-12-31T21:06:36.482Z,79.70
2022-12-31T21:09:05.784Z,78.66
2022-12-31T21:11:51.660Z,75.17
2022-12-31T21:14:19.125Z,76.62
2022-12-31T21:16:46.489Z,77.75
2022-12-31T21:19:13.819Z,77.58
2022-12-31T21:21:41.006Z,76.83
2022-12-31T21:24:08.480Z,77.65
2022-12-31T21:26:35.801Z,77.54
2022-12-31T21:29:03.181Z,78.06
2022-12-31T21:31:31.787Z,77.66
2022-12-31T21:33:59.097Z,76.75
2022-12-31T21:36:27.541Z,77.66
2022-12-31T21:38:54.804Z,76.87
2022-12-31T21:41:40.540Z,77.04
2022-12-31T21:44:08.097Z,78.22
2022-12-31T21:46:35.384Z,78.20
2022-12-31T21:49:02.663Z,77.96
2022-12-31T21:51:30.077Z,78.68
2022-12-31T21:53:57.701Z,77.47
2022-12-31T21:56:25.312Z,78.88
2022-12-31T21:59:13.685Z,78.58
2022-12-31T22:01:59.557Z,77.24
2022-12-31T22:07:14.519Z,76.77
2022-12-31T22:09:41.821Z,77.88
2022-12-31T22:12:09.040Z,78.21
2022-12-31T22:14:36.261Z,76.98
2022-12-31T22:17:03.581Z,78.59
2022-12-31T22:19:30.811Z,77.44
2022-12-31T22:21:58.269Z,77.53
2022-12-31T22:24:26.497Z,76.63
2022-12-31T22:26:55.605Z,77.85
2022-12-31T22:29:23.622Z,75.44
2022-12-31T22:31:55.533Z,75.62
2022-12-31T22:34:26.603Z,75.83
2022-12-31T22:36:53.820Z,76.35
2022-12-31T22:39:43.401Z,77.53
2022-12-31T22:42:08.523Z,76.86
2022-12-31T22:44:35.757Z,76.27
2022-12-31T22:47:03.004Z,76.06
2022-12-31T22:49:30.296Z,75.52
2022-12-31T22:52:01.756Z,72.84
2022-12-31T22:54:31.815Z,73.42
2022-12-31T22:56:59.005Z,74.99
2022-12-31T22:59:26.268Z,75.21
2022-12-31T23:01:53.682Z,74.55
2022-12-31T23:04:21.047Z,75.86
2022-12-31T23:06:48.287Z,76.17
2022-12-31T23:09:35.529Z,77.87
2022-12-31T23:12:04.267Z,73.76
2022-12-31T23:14:50.067Z,75.47
2022-12-31T23:17:41.431Z,74.14
2022-12-31T23:20:32.763Z,74.84
2022-12-31T23:23:05.719Z,75.40
2022-12-31T23:25:43.209Z,73.02
2022-12-31T23:28:20.379Z,72.52
2022-12-31T23:30:47.636Z,74.08
2022-12-31T23:33:17.470Z,77.07
2022-12-31T23:35:45.206Z,72.75
2022-12-31T23:38:12.784Z,73.85
2022-12-31T23:40:41.271Z,75.63
2022-12-31T23:43:09.726Z,73.99
2022-12-31T23:45:37.525Z,74.19
2022-12-31T23:48:04.849Z,73.30
2022-12-31T23:50:34.998Z,74.40
2022-12-31T23:53:02.631Z,73.90
2022-12-31T23:55:29.827Z,71.69
2022-12-31T23:57:56.989Z,70.45
